sensor_id;sensor_type;location;lat;lon;timestamp;temperature;humidity
18541;DHT22;9400;50.924;5.328;2023-04-24T00:01:29;10.00;99.90
18541;DHT22;9400;50.924;5.328;2023-04-24T00:03:57;10.00;99.90
18541;DHT22;9400;50.924;5.328;2023-04-24T00:06:25;10.00;99.90
18541;DHT22;9400;50.924;5.328;2023-04-24T00:08:58;10.00;99.90
18541;DHT22;9400;50.924;5.328;2023-04-24T00:11:26;10.00;99.90
18541;DHT22;9400;50.924;5.328;2023-04-24T00:13:53;10.00;99.90
18541;DHT22;9400;50.924;5.328;2023-04-24T00:16:23;10.00;99.90
18541;DHT22;9400;50.924;5.328;2023-04-24T00:18:50;10.00;99.90
18541;DHT22;9400;50.924;5.328;2023-04-24T00:21:22;10.00;99.90
18541;DHT22;9400;50.924;5.328;2023-04-24T00:23:51;10.00;99.90
18541;DHT22;9400;50.924;5.328;2023-04-24T00:26:19;9.90;99.90
18541;DHT22;9400;50.924;5.328;2023-04-24T00:28:47;9.90;99.90
18541;DHT22;9400;50.924;5.328;2023-04-24T00:31:15;9.90;99.90
18541;DHT22;9400;50.924;5.328;2023-04-24T00:33:44;9.90;99.90
18541;DHT22;9400;50.924;5.328;2023-04-24T00:36:11;10.00;99.90
18541;DHT22;9400;50.924;5.328;2023-04-24T00:38:39;9.90;99.90
18541;DHT22;9400;50.924;5.328;2023-04-24T00:41:06;9.90;99.90
18541;DHT22;9400;50.924;5.328;2023-04-24T00:43:34;9.90;99.90
18541;DHT22;9400;50.924;5.328;2023-04-24T00:46:02;9.90;99.90
18541;DHT22;9400;50.924;5.328;2023-04-24T00:48:29;9.90;99.90
18541;DHT22;9400;50.924;5.328;2023-04-24T00:50:59;9.90;99.90
18541;DHT22;9400;50.924;5.328;2023-04-24T00:53:27;9.90;99.90
18541;DHT22;9400;50.924;5.328;2023-04-24T00:55:55;9.90;99.90
18541;DHT22;9400;50.924;5.328;2023-04-24T00:58:23;9.90;99.90
18541;DHT22;9400;50.924;5.328;2023-04-24T01:00:51;9.90;99.90
18541;DHT22;9400;50.924;5.328;2023-04-24T01:03:20;9.90;99.90
18541;DHT22;9400;50.924;5.328;2023-04-24T01:05:49;9.90;99.90
18541;DHT22;9400;50.924;5.328;2023-04-24T01:08:18;9.90;99.90
18541;DHT22;9400;50.924;5.328;2023-04-24T01:10:48;9.90;99.90
18541;DHT22;9400;50.924;5.328;2023-04-24T01:13:15;9.90;99.90
18541;DHT22;9400;50.924;5.328;2023-04-24T01:15:43;9.90;99.90
18541;DHT22;9400;50.924;5.328;2023-04-24T01:18:11;9.90;99.90
18541;DHT22;9400;50.924;5.328;2023-04-24T01:20:40;9.90;99.90
18541;DHT22;9400;50.924;5.328;2023-04-24T01:23:10;9.90;99.90
18541;DHT22;9400;50.924;5.328;2023-04-24T01:25:38;9.90;99.90
18541;DHT22;9400;50.924;5.328;2023-04-24T01:28:05;9.90;99.90
18541;DHT22;9400;50.924;5.328;2023-04-24T01:30:33;9.90;99.90
18541;DHT22;9400;50.924;5.328;2023-04-24T01:33:01;9.80;99.90
18541;DHT22;9400;50.924;5.328;2023-04-24T01:35:29;9.80;99.90
18541;DHT22;9400;50.924;5.328;2023-04-24T01:37:56;9.80;99.90
18541;DHT22;9400;50.924;5.328;2023-04-24T01:40:25;9.80;99.90
18541;DHT22;9400;50.924;5.328;2023-04-24T01:42:53;9.80;99.90
18541;DHT22;9400;50.924;5.328;2023-04-24T01:45:21;9.80;99.90
18541;DHT22;9400;50.924;5.328;2023-04-24T01:47:50;9.80;99.90
18541;DHT22;9400;50.924;5.328;2023-04-24T01:50:18;9.80;99.90
18541;DHT22;9400;50.924;5.328;2023-04-24T01:52:45;9.80;99.90
18541;DHT22;9400;50.924;5.328;2023-04-24T01:55:13;9.80;99.90
18541;DHT22;9400;50.924;5.328;2023-04-24T01:57:42;9.80;99.90
18541;DHT22;9400;50.924;5.328;2023-04-24T02:00:10;9.80;99.90
18541;DHT22;9400;50.924;5.328;2023-04-24T02:02:40;9.80;99.90
18541;DHT22;9400;50.924;5.328;2023-04-24T02:05:08;9.80;99.90
18541;DHT22;9400;50.924;5.328;2023-04-24T02:07:37;9.70;99.90
18541;DHT22;9400;50.924;5.328;2023-04-24T02:10:05;9.70;99.90
18541;DHT22;9400;50.924;5.328;2023-04-24T02:12:33;9.60;99.90
18541;DHT22;9400;50.924;5.328;2023-04-24T02:15:03;9.40;99.90
18541;DHT22;9400;50.924;5.328;2023-04-24T02:17:31;9.40;99.90
18541;DHT22;9400;50.924;5.328;2023-04-24T02:19:59;9.30;99.90
18541;DHT22;9400;50.924;5.328;2023-04-24T02:22:26;9.30;99.90
18541;DHT22;9400;50.924;5.328;2023-04-24T02:24:54;9.30;99.90
18541;DHT22;9400;50.924;5.328;2023-04-24T02:27:21;9.30;99.90
18541;DHT22;9400;50.924;5.328;2023-04-24T02:29:48;9.20;99.90
18541;DHT22;9400;50.924;5.328;2023-04-24T02:32:18;9.30;99.90
18541;DHT22;9400;50.924;5.328;2023-04-24T02:34:45;9.30;99.90
18541;DHT22;9400;50.924;5.328;2023-04-24T02:37:13;9.30;99.90
18541;DHT22;9400;50.924;5.328;2023-04-24T02:39:40;9.30;99.90
18541;DHT22;9400;50.924;5.328;2023-04-24T02:42:08;9.20;99.90
18541;DHT22;9400;50.924;5.328;2023-04-24T02:44:35;9.20;99.90
18541;DHT22;9400;50.924;5.328;2023-04-24T02:47:03;9.20;99.90
18541;DHT22;9400;50.924;5.328;2023-04-24T02:49:32;9.00;99.90
18541;DHT22;9400;50.924;5.328;2023-04-24T02:51:59;9.10;99.90
18541;DHT22;9400;50.924;5.328;2023-04-24T02:54:27;9.10;99.90
18541;DHT22;9400;50.924;5.328;2023-04-24T02:56:55;9.20;99.90
18541;DHT22;9400;50.924;5.328;2023-04-24T02:59:23;9.10;99.90
18541;DHT22;9400;50.924;5.328;2023-04-24T03:01:50;9.10;99.90
18541;DHT22;9400;50.924;5.328;2023-04-24T03:04:18;9.10;99.90
18541;DHT22;9400;50.924;5.328;2023-04-24T03:06:47;9.00;99.90
18541;DHT22;9400;50.924;5.328;2023-04-24T03:09:15;9.00;99.90
18541;DHT22;9400;50.924;5.328;2023-04-24T03:11:42;9.00;99.90
18541;DHT22;9400;50.924;5.328;2023-04-24T03:14:09;9.00;99.90
18541;DHT22;9400;50.924;5.328;2023-04-24T03:16:37;8.90;99.90
18541;DHT22;9400;50.924;5.328;2023-04-24T03:19:04;8.90;99.90
18541;DHT22;9400;50.924;5.328;2023-04-24T03:21:32;8.90;99.90
18541;DHT22;9400;50.924;5.328;2023-04-24T03:24:01;8.90;99.90
18541;DHT22;9400;50.924;5.328;2023-04-24T03:26:28;8.90;99.90
18541;DHT22;9400;50.924;5.328;2023-04-24T03:28:56;9.00;99.90
18541;DHT22;9400;50.924;5.328;2023-04-24T03:31:23;9.00;99.90
18541;DHT22;9400;50.924;5.328;2023-04-24T03:33:51;9.00;99.90
18541;DHT22;9400;50.924;5.328;2023-04-24T03:36:18;9.00;99.90
18541;DHT22;9400;50.924;5.328;2023-04-24T03:38:46;9.00;99.90
18541;DHT22;9400;50.924;5.328;2023-04-24T03:41:15;9.00;99.90
18541;DHT22;9400;50.924;5.328;2023-04-24T03:43:42;8.90;99.90
18541;DHT22;9400;50.924;5.328;2023-04-24T03:46:10;8.90;99.90
18541;DHT22;9400;50.924;5.328;2023-04-24T03:48:37;8.90;99.90
18541;DHT22;9400;50.924;5.328;2023-04-24T03:51:05;8.90;99.90
18541;DHT22;9400;50.924;5.328;2023-04-24T03:53:32;8.90;99.90
18541;DHT22;9400;50.924;5.328;2023-04-24T03:55:59;8.90;99.90
18541;DHT22;9400;50.924;5.328;2023-04-24T03:58:28;8.90;99.90
18541;DHT22;9400;50.924;5.328;2023-04-24T04:00:56;8.90;99.90
18541;DHT22;9400;50.924;5.328;2023-04-24T04:03:24;9.00;99.90
18541;DHT22;9400;50.924;5.328;2023-04-24T04:05:52;8.90;99.90
18541;DHT22;9400;50.924;5.328;2023-04-24T04:08:20;8.90;99.90
18541;DHT22;9400;50.924;5.328;2023-04-24T04:10:47;8.90;99.90
18541;DHT22;9400;50.924;5.328;2023-04-24T04:13:14;8.90;99.90
18541;DHT22;9400;50.924;5.328;2023-04-24T04:15:44;8.90;99.90
18541;DHT22;9400;50.924;5.328;2023-04-24T04:18:11;8.90;99.90
18541;DHT22;9400;50.924;5.328;2023-04-24T04:20:38;8.90;99.90
18541;DHT22;9400;50.924;5.328;2023-04-24T04:23:06;8.90;99.90
18541;DHT22;9400;50.924;5.328;2023-04-24T04:25:33;8.80;99.90
18541;DHT22;9400;50.924;5.328;2023-04-24T04:28:01;8.80;99.90
18541;DHT22;9400;50.924;5.328;2023-04-24T04:30:28;8.80;99.90
18541;DHT22;9400;50.924;5.328;2023-04-24T04:32:59;8.70;99.90
18541;DHT22;9400;50.924;5.328;2023-04-24T04:35:27;8.60;99.90
18541;DHT22;9400;50.924;5.328;2023-04-24T04:37:55;8.60;99.90
18541;DHT22;9400;50.924;5.328;2023-04-24T04:40:24;8.60;99.90
18541;DHT22;9400;50.924;5.328;2023-04-24T04:42:52;8.50;99.90
18541;DHT22;9400;50.924;5.328;2023-04-24T04:45:20;8.50;99.90
18541;DHT22;9400;50.924;5.328;2023-04-24T04:47:50;8.50;99.90
18541;DHT22;9400;50.924;5.328;2023-04-24T04:50:19;8.60;99.90
18541;DHT22;9400;50.924;5.328;2023-04-24T04:52:46;8.50;99.90
18541;DHT22;9400;50.924;5.328;2023-04-24T04:55:14;8.50;99.90
18541;DHT22;9400;50.924;5.328;2023-04-24T04:57:41;8.50;99.90
18541;DHT22;9400;50.924;5.328;2023-04-24T05:00:10;8.50;99.90
18541;DHT22;9400;50.924;5.328;2023-04-24T05:02:38;8.50;99.90
18541;DHT22;9400;50.924;5.328;2023-04-24T05:05:07;8.40;99.90
18541;DHT22;9400;50.924;5.328;2023-04-24T05:07:36;8.40;99.90
18541;DHT22;9400;50.924;5.328;2023-04-24T05:10:04;8.40;99.90
18541;DHT22;9400;50.924;5.328;2023-04-24T05:12:31;8.40;99.90
18541;DHT22;9400;50.924;5.328;2023-04-24T05:14:59;8.50;99.90
18541;DHT22;9400;50.924;5.328;2023-04-24T05:17:26;8.50;99.90
18541;DHT22;9400;50.924;5.328;2023-04-24T05:19:54;8.50;99.90
18541;DHT22;9400;50.924;5.328;2023-04-24T05:22:21;8.50;99.90
18541;DHT22;9400;50.924;5.328;2023-04-24T05:24:51;8.60;99.90
18541;DHT22;9400;50.924;5.328;2023-04-24T05:27:19;8.60;99.90
18541;DHT22;9400;50.924;5.328;2023-04-24T05:29:47;8.60;99.90
18541;DHT22;9400;50.924;5.328;2023-04-24T05:32:14;8.50;99.90
18541;DHT22;9400;50.924;5.328;2023-04-24T05:34:41;8.50;99.90
18541;DHT22;9400;50.924;5.328;2023-04-24T05:37:09;8.50;99.90
18541;DHT22;9400;50.924;5.328;2023-04-24T05:39:37;8.50;99.90
18541;DHT22;9400;50.924;5.328;2023-04-24T05:42:08;8.60;99.90
18541;DHT22;9400;50.924;5.328;2023-04-24T05:44:35;8.50;99.90
18541;DHT22;9400;50.924;5.328;2023-04-24T05:47:03;8.50;99.90
18541;DHT22;9400;50.924;5.328;2023-04-24T05:49:30;8.50;99.90
18541;DHT22;9400;50.924;5.328;2023-04-24T05:51:58;8.40;99.90
18541;DHT22;9400;50.924;5.328;2023-04-24T05:54:25;8.40;99.90
18541;DHT22;9400;50.924;5.328;2023-04-24T05:56:53;8.40;99.90
18541;DHT22;9400;50.924;5.328;2023-04-24T05:59:22;8.30;99.90
18541;DHT22;9400;50.924;5.328;2023-04-24T06:01:50;8.20;99.90
18541;DHT22;9400;50.924;5.328;2023-04-24T06:04:17;8.20;99.90
18541;DHT22;9400;50.924;5.328;2023-04-24T06:06:45;8.20;99.90
18541;DHT22;9400;50.924;5.328;2023-04-24T06:09:17;8.20;99.90
18541;DHT22;9400;50.924;5.328;2023-04-24T06:11:45;8.20;99.90
18541;DHT22;9400;50.924;5.328;2023-04-24T06:14:12;8.10;99.90
18541;DHT22;9400;50.924;5.328;2023-04-24T06:16:42;8.10;99.90
18541;DHT22;9400;50.924;5.328;2023-04-24T06:19:09;8.10;99.90
18541;DHT22;9400;50.924;5.328;2023-04-24T06:21:37;8.10;99.90
18541;DHT22;9400;50.924;5.328;2023-04-24T06:24:04;8.10;99.90
18541;DHT22;9400;50.924;5.328;2023-04-24T06:26:35;8.10;99.90
18541;DHT22;9400;50.924;5.328;2023-04-24T06:29:03;8.10;99.90
18541;DHT22;9400;50.924;5.328;2023-04-24T06:31:31;8.10;99.90
18541;DHT22;9400;50.924;5.328;2023-04-24T06:34:04;8.10;99.90
18541;DHT22;9400;50.924;5.328;2023-04-24T06:36:31;8.10;99.90
18541;DHT22;9400;50.924;5.328;2023-04-24T06:39:00;8.00;99.90
18541;DHT22;9400;50.924;5.328;2023-04-24T06:41:29;8.00;99.90
18541;DHT22;9400;50.924;5.328;2023-04-24T06:43:56;8.00;99.90
18541;DHT22;9400;50.924;5.328;2023-04-24T06:46:24;8.00;99.90
18541;DHT22;9400;50.924;5.328;2023-04-24T06:48:52;8.00;99.90
18541;DHT22;9400;50.924;5.328;2023-04-24T06:51:23;8.00;99.90
18541;DHT22;9400;50.924;5.328;2023-04-24T06:53:52;8.00;99.90
18541;DHT22;9400;50.924;5.328;2023-04-24T06:56:20;8.00;99.90
18541;DHT22;9400;50.924;5.328;2023-04-24T06:58:48;8.10;99.90
18541;DHT22;9400;50.924;5.328;2023-04-24T07:01:16;8.00;99.90
18541;DHT22;9400;50.924;5.328;2023-04-24T07:03:43;8.10;99.90
18541;DHT22;9400;50.924;5.328;2023-04-24T07:06:11;8.00;99.90
18541;DHT22;9400;50.924;5.328;2023-04-24T07:08:40;8.00;99.90
18541;DHT22;9400;50.924;5.328;2023-04-24T07:11:08;8.10;99.90
18541;DHT22;9400;50.924;5.328;2023-04-24T07:13:44;8.20;99.90
18541;DHT22;9400;50.924;5.328;2023-04-24T07:16:14;8.20;99.90
18541;DHT22;9400;50.924;5.328;2023-04-24T07:18:41;8.30;99.90
18541;DHT22;9400;50.924;5.328;2023-04-24T07:21:09;8.30;99.90
18541;DHT22;9400;50.924;5.328;2023-04-24T07:23:38;8.30;99.90
18541;DHT22;9400;50.924;5.328;2023-04-24T07:26:07;8.30;99.90
18541;DHT22;9400;50.924;5.328;2023-04-24T07:28:34;8.30;99.90
18541;DHT22;9400;50.924;5.328;2023-04-24T07:31:06;8.30;99.90
18541;DHT22;9400;50.924;5.328;2023-04-24T07:33:33;8.40;99.90
18541;DHT22;9400;50.924;5.328;2023-04-24T07:36:02;8.40;99.90
18541;DHT22;9400;50.924;5.328;2023-04-24T07:38:29;8.40;99.90
18541;DHT22;9400;50.924;5.328;2023-04-24T07:40:58;8.40;99.90
18541;DHT22;9400;50.924;5.328;2023-04-24T07:43:26;8.40;99.90
18541;DHT22;9400;50.924;5.328;2023-04-24T07:45:54;8.40;99.90
18541;DHT22;9400;50.924;5.328;2023-04-24T07:48:21;8.40;99.90
18541;DHT22;9400;50.924;5.328;2023-04-24T07:50:50;8.40;99.90
18541;DHT22;9400;50.924;5.328;2023-04-24T07:53:18;8.40;99.90
18541;DHT22;9400;50.924;5.328;2023-04-24T07:55:46;8.40;99.90
18541;DHT22;9400;50.924;5.328;2023-04-24T07:58:15;8.40;99.90
18541;DHT22;9400;50.924;5.328;2023-04-24T08:00:42;8.30;99.90
18541;DHT22;9400;50.924;5.328;2023-04-24T08:03:10;8.30;99.90
18541;DHT22;9400;50.924;5.328;2023-04-24T08:05:38;8.30;99.90
18541;DHT22;9400;50.924;5.328;2023-04-24T08:08:05;8.40;99.90
18541;DHT22;9400;50.924;5.328;2023-04-24T08:10:33;8.40;99.90
18541;DHT22;9400;50.924;5.328;2023-04-24T08:13:00;8.40;99.90
18541;DHT22;9400;50.924;5.328;2023-04-24T08:15:30;8.50;99.90
18541;DHT22;9400;50.924;5.328;2023-04-24T08:17:57;8.40;99.90
18541;DHT22;9400;50.924;5.328;2023-04-24T08:20:25;8.40;99.90
18541;DHT22;9400;50.924;5.328;2023-04-24T08:22:57;8.50;99.90
18541;DHT22;9400;50.924;5.328;2023-04-24T08:25:26;8.50;99.90
18541;DHT22;9400;50.924;5.328;2023-04-24T08:27:54;8.60;99.90
18541;DHT22;9400;50.924;5.328;2023-04-24T08:30:24;8.70;99.90
18541;DHT22;9400;50.924;5.328;2023-04-24T08:32:59;8.80;99.90
18541;DHT22;9400;50.924;5.328;2023-04-24T08:35:29;9.00;99.90
18541;DHT22;9400;50.924;5.328;2023-04-24T08:38:01;9.10;99.90
18541;DHT22;9400;50.924;5.328;2023-04-24T08:40:35;9.10;99.90
18541;DHT22;9400;50.924;5.328;2023-04-24T08:43:04;9.20;99.90
18541;DHT22;9400;50.924;5.328;2023-04-24T08:45:33;9.40;99.90
18541;DHT22;9400;50.924;5.328;2023-04-24T08:48:02;9.50;99.90
18541;DHT22;9400;50.924;5.328;2023-04-24T08:50:32;9.50;99.90
18541;DHT22;9400;50.924;5.328;2023-04-24T08:53:01;9.60;99.90
18541;DHT22;9400;50.924;5.328;2023-04-24T08:55:29;9.50;99.90
18541;DHT22;9400;50.924;5.328;2023-04-24T08:57:58;9.60;99.90
18541;DHT22;9400;50.924;5.328;2023-04-24T09:00:27;9.60;99.90
18541;DHT22;9400;50.924;5.328;2023-04-24T09:02:55;9.50;99.90
18541;DHT22;9400;50.924;5.328;2023-04-24T09:05:25;9.30;99.90
18541;DHT22;9400;50.924;5.328;2023-04-24T09:07:55;9.10;99.90
18541;DHT22;9400;50.924;5.328;2023-04-24T09:10:25;9.10;99.90
18541;DHT22;9400;50.924;5.328;2023-04-24T09:12:52;9.20;99.90
18541;DHT22;9400;50.924;5.328;2023-04-24T09:15:22;9.10;99.90
18541;DHT22;9400;50.924;5.328;2023-04-24T09:17:50;9.10;99.90
18541;DHT22;9400;50.924;5.328;2023-04-24T09:20:17;9.10;99.90
18541;DHT22;9400;50.924;5.328;2023-04-24T09:22:47;9.20;99.90
18541;DHT22;9400;50.924;5.328;2023-04-24T09:25:16;9.20;99.90
18541;DHT22;9400;50.924;5.328;2023-04-24T09:27:45;9.20;99.90
18541;DHT22;9400;50.924;5.328;2023-04-24T09:30:13;9.50;99.90
18541;DHT22;9400;50.924;5.328;2023-04-24T09:32:41;9.80;99.90
18541;DHT22;9400;50.924;5.328;2023-04-24T09:35:11;9.80;99.90
18541;DHT22;9400;50.924;5.328;2023-04-24T09:37:40;10.20;99.90
18541;DHT22;9400;50.924;5.328;2023-04-24T09:40:15;10.30;99.90
18541;DHT22;9400;50.924;5.328;2023-04-24T09:42:51;10.30;99.90
18541;DHT22;9400;50.924;5.328;2023-04-24T09:45:19;10.30;99.90
18541;DHT22;9400;50.924;5.328;2023-04-24T09:47:51;10.30;99.90
18541;DHT22;9400;50.924;5.328;2023-04-24T09:50:19;10.60;99.90
18541;DHT22;9400;50.924;5.328;2023-04-24T09:52:56;10.70;99.90
18541;DHT22;9400;50.924;5.328;2023-04-24T09:55:25;10.80;99.90
18541;DHT22;9400;50.924;5.328;2023-04-24T09:57:55;10.90;99.90
18541;DHT22;9400;50.924;5.328;2023-04-24T10:00:23;11.00;99.90
18541;DHT22;9400;50.924;5.328;2023-04-24T10:02:55;11.00;99.90
18541;DHT22;9400;50.924;5.328;2023-04-24T10:05:29;11.20;99.90
18541;DHT22;9400;50.924;5.328;2023-04-24T10:08:01;11.20;99.90
18541;DHT22;9400;50.924;5.328;2023-04-24T10:10:31;11.20;99.90
18541;DHT22;9400;50.924;5.328;2023-04-24T10:12:59;11.40;99.90
18541;DHT22;9400;50.924;5.328;2023-04-24T10:15:27;11.40;99.90
18541;DHT22;9400;50.924;5.328;2023-04-24T10:17:54;11.50;99.90
18541;DHT22;9400;50.924;5.328;2023-04-24T10:20:27;11.40;99.90
18541;DHT22;9400;50.924;5.328;2023-04-24T10:22:56;11.40;99.90
18541;DHT22;9400;50.924;5.328;2023-04-24T10:25:25;11.30;99.90
18541;DHT22;9400;50.924;5.328;2023-04-24T10:27:55;11.00;99.90
18541;DHT22;9400;50.924;5.328;2023-04-24T10:30:26;11.10;99.90
18541;DHT22;9400;50.924;5.328;2023-04-24T10:32:53;11.20;99.90
18541;DHT22;9400;50.924;5.328;2023-04-24T10:35:22;11.30;99.90
18541;DHT22;9400;50.924;5.328;2023-04-24T10:37:56;11.50;99.90
18541;DHT22;9400;50.924;5.328;2023-04-24T10:40:27;11.70;99.90
18541;DHT22;9400;50.924;5.328;2023-04-24T10:42:58;11.80;99.90
18541;DHT22;9400;50.924;5.328;2023-04-24T10:45:26;11.80;99.90
18541;DHT22;9400;50.924;5.328;2023-04-24T10:47:57;11.90;99.90
18541;DHT22;9400;50.924;5.328;2023-04-24T10:50:27;11.80;99.90
18541;DHT22;9400;50.924;5.328;2023-04-24T10:53:06;11.80;99.90
18541;DHT22;9400;50.924;5.328;2023-04-24T10:55:46;11.70;99.90
18541;DHT22;9400;50.924;5.328;2023-04-24T10:58:16;11.50;99.90
18541;DHT22;9400;50.924;5.328;2023-04-24T11:00:54;11.50;99.90
18541;DHT22;9400;50.924;5.328;2023-04-24T11:03:25;11.60;99.90
18541;DHT22;9400;50.924;5.328;2023-04-24T11:05:58;11.70;99.90
18541;DHT22;9400;50.924;5.328;2023-04-24T11:08:29;11.90;99.90
18541;DHT22;9400;50.924;5.328;2023-04-24T11:11:03;11.80;99.90
18541;DHT22;9400;50.924;5.328;2023-04-24T11:16:52;11.40;99.90
18541;DHT22;9400;50.924;5.328;2023-04-24T11:19:22;11.50;99.90
18541;DHT22;9400;50.924;5.328;2023-04-24T11:21:57;11.50;99.90
18541;DHT22;9400;50.924;5.328;2023-04-24T11:24:53;11.50;99.90
18541;DHT22;9400;50.924;5.328;2023-04-24T11:27:22;11.80;99.90
18541;DHT22;9400;50.924;5.328;2023-04-24T11:30:00;12.20;99.90
18541;DHT22;9400;50.924;5.328;2023-04-24T11:32:34;12.10;99.90
18541;DHT22;9400;50.924;5.328;2023-04-24T11:35:04;11.90;99.90
18541;DHT22;9400;50.924;5.328;2023-04-24T11:37:37;11.70;99.90
18541;DHT22;9400;50.924;5.328;2023-04-24T11:40:05;11.70;99.90
18541;DHT22;9400;50.924;5.328;2023-04-24T11:42:35;12.00;99.90
18541;DHT22;9400;50.924;5.328;2023-04-24T11:45:08;12.30;99.90
18541;DHT22;9400;50.924;5.328;2023-04-24T11:47:38;12.60;99.90
18541;DHT22;9400;50.924;5.328;2023-04-24T11:50:08;13.40;99.90
18541;DHT22;9400;50.924;5.328;2023-04-24T11:52:38;13.60;99.90
18541;DHT22;9400;50.924;5.328;2023-04-24T11:55:08;13.60;99.90
18541;DHT22;9400;50.924;5.328;2023-04-24T11:57:36;13.90;99.90
18541;DHT22;9400;50.924;5.328;2023-04-24T12:00:05;14.30;99.90
18541;DHT22;9400;50.924;5.328;2023-04-24T12:02:33;14.10;99.90
18541;DHT22;9400;50.924;5.328;2023-04-24T12:05:02;13.50;99.90
18541;DHT22;9400;50.924;5.328;2023-04-24T12:07:29;13.10;99.90
18541;DHT22;9400;50.924;5.328;2023-04-24T12:10:08;13.20;99.90
18541;DHT22;9400;50.924;5.328;2023-04-24T12:12:37;14.00;99.90
18541;DHT22;9400;50.924;5.328;2023-04-24T12:15:07;14.00;99.90
18541;DHT22;9400;50.924;5.328;2023-04-24T12:17:36;13.40;99.90
18541;DHT22;9400;50.924;5.328;2023-04-24T12:20:10;13.20;99.90
18541;DHT22;9400;50.924;5.328;2023-04-24T12:22:45;12.90;99.90
18541;DHT22;9400;50.924;5.328;2023-04-24T12:25:14;12.90;99.90
18541;DHT22;9400;50.924;5.328;2023-04-24T12:27:44;13.40;99.90
18541;DHT22;9400;50.924;5.328;2023-04-24T12:30:13;13.90;99.90
18541;DHT22;9400;50.924;5.328;2023-04-24T12:32:42;14.40;99.90
18541;DHT22;9400;50.924;5.328;2023-04-24T12:35:12;14.50;99.90
18541;DHT22;9400;50.924;5.328;2023-04-24T12:37:42;14.60;99.90
18541;DHT22;9400;50.924;5.328;2023-04-24T12:40:12;13.80;99.90
18541;DHT22;9400;50.924;5.328;2023-04-24T12:42:43;13.40;99.90
18541;DHT22;9400;50.924;5.328;2023-04-24T12:45:11;13.10;99.90
18541;DHT22;9400;50.924;5.328;2023-04-24T13:44:30;17.70;99.90
18541;DHT22;9400;50.924;5.328;2023-04-24T13:46:59;18.20;99.90
18541;DHT22;9400;50.924;5.328;2023-04-24T13:49:27;18.90;99.90
18541;DHT22;9400;50.924;5.328;2023-04-24T13:51:56;17.80;99.90
18541;DHT22;9400;50.924;5.328;2023-04-24T13:54:23;16.60;99.90
18541;DHT22;9400;50.924;5.328;2023-04-24T13:56:51;15.20;99.90
18541;DHT22;9400;50.924;5.328;2023-04-24T13:59:19;14.80;99.90
18541;DHT22;9400;50.924;5.328;2023-04-24T14:01:49;14.80;99.90
18541;DHT22;9400;50.924;5.328;2023-04-24T14:04:16;15.90;99.90
18541;DHT22;9400;50.924;5.328;2023-04-24T14:06:43;16.00;99.90
18541;DHT22;9400;50.924;5.328;2023-04-24T14:09:11;16.40;99.90
18541;DHT22;9400;50.924;5.328;2023-04-24T14:11:39;15.60;99.90
18541;DHT22;9400;50.924;5.328;2023-04-24T14:14:07;15.00;99.90
18541;DHT22;9400;50.924;5.328;2023-04-24T14:16:35;15.00;99.90
18541;DHT22;9400;50.924;5.328;2023-04-24T14:19:04;15.20;99.90
18541;DHT22;9400;50.924;5.328;2023-04-24T14:21:32;16.10;99.90
18541;DHT22;9400;50.924;5.328;2023-04-24T14:24:00;18.40;99.90
18541;DHT22;9400;50.924;5.328;2023-04-24T14:26:27;19.40;99.90
18541;DHT22;9400;50.924;5.328;2023-04-24T14:28:55;20.00;99.90
18541;DHT22;9400;50.924;5.328;2023-04-24T14:31:24;19.50;99.90
18541;DHT22;9400;50.924;5.328;2023-04-24T14:33:51;17.80;99.90
18541;DHT22;9400;50.924;5.328;2023-04-24T14:36:21;17.80;99.90
18541;DHT22;9400;50.924;5.328;2023-04-24T14:38:49;16.80;99.90
18541;DHT22;9400;50.924;5.328;2023-04-24T14:41:17;16.10;99.90
18541;DHT22;9400;50.924;5.328;2023-04-24T14:43:45;16.40;99.90
18541;DHT22;9400;50.924;5.328;2023-04-24T14:46:12;16.80;99.90
18541;DHT22;9400;50.924;5.328;2023-04-24T14:48:40;17.70;99.90
18541;DHT22;9400;50.924;5.328;2023-04-24T14:51:08;17.70;99.90
18541;DHT22;9400;50.924;5.328;2023-04-24T14:53:37;17.90;99.90
18541;DHT22;9400;50.924;5.328;2023-04-24T14:56:05;17.50;99.90
18541;DHT22;9400;50.924;5.328;2023-04-24T14:58:32;17.10;99.90
18541;DHT22;9400;50.924;5.328;2023-04-24T15:01:00;17.10;99.90
18541;DHT22;9400;50.924;5.328;2023-04-24T15:03:27;16.40;99.90
18541;DHT22;9400;50.924;5.328;2023-04-24T15:05:58;16.30;99.90
18541;DHT22;9400;50.924;5.328;2023-04-24T15:08:27;15.90;99.90
18541;DHT22;9400;50.924;5.328;2023-04-24T15:10:56;16.10;99.90
18541;DHT22;9400;50.924;5.328;2023-04-24T15:13:24;17.40;99.90
18541;DHT22;9400;50.924;5.328;2023-04-24T15:15:51;17.30;99.90
18541;DHT22;9400;50.924;5.328;2023-04-24T15:18:19;16.30;99.90
18541;DHT22;9400;50.924;5.328;2023-04-24T15:20:46;15.60;99.90
18541;DHT22;9400;50.924;5.328;2023-04-24T15:23:14;16.00;99.90
18541;DHT22;9400;50.924;5.328;2023-04-24T15:25:41;16.40;99.90
18541;DHT22;9400;50.924;5.328;2023-04-24T15:28:10;16.10;99.90
18541;DHT22;9400;50.924;5.328;2023-04-24T15:30:38;16.50;99.90
18541;DHT22;9400;50.924;5.328;2023-04-24T15:33:06;18.20;99.90
18541;DHT22;9400;50.924;5.328;2023-04-24T15:35:33;18.80;99.90
18541;DHT22;9400;50.924;5.328;2023-04-24T15:38:02;17.20;99.90
18541;DHT22;9400;50.924;5.328;2023-04-24T15:40:30;16.00;99.90
18541;DHT22;9400;50.924;5.328;2023-04-24T15:42:57;15.50;99.90
18541;DHT22;9400;50.924;5.328;2023-04-24T15:45:26;15.00;99.90
18541;DHT22;9400;50.924;5.328;2023-04-24T15:47:54;14.60;99.90
18541;DHT22;9400;50.924;5.328;2023-04-24T15:50:22;14.40;99.90
18541;DHT22;9400;50.924;5.328;2023-04-24T15:52:50;14.20;99.90
18541;DHT22;9400;50.924;5.328;2023-04-24T15:55:17;14.30;99.90
18541;DHT22;9400;50.924;5.328;2023-04-24T15:57:45;14.40;99.90
18541;DHT22;9400;50.924;5.328;2023-04-24T16:00:13;14.20;99.90
18541;DHT22;9400;50.924;5.328;2023-04-24T16:02:45;14.00;99.90
18541;DHT22;9400;50.924;5.328;2023-04-24T16:05:14;13.90;99.90
18541;DHT22;9400;50.924;5.328;2023-04-24T16:07:42;13.90;99.90
18541;DHT22;9400;50.924;5.328;2023-04-24T16:10:10;13.90;99.90
18541;DHT22;9400;50.924;5.328;2023-04-24T16:12:38;13.80;99.90
18541;DHT22;9400;50.924;5.328;2023-04-24T16:15:06;13.90;99.90
18541;DHT22;9400;50.924;5.328;2023-04-24T16:17:34;13.90;99.90
18541;DHT22;9400;50.924;5.328;2023-04-24T16:20:03;13.80;99.90
18541;DHT22;9400;50.924;5.328;2023-04-24T16:22:30;14.20;99.90
18541;DHT22;9400;50.924;5.328;2023-04-24T16:24:59;14.80;99.90
18541;DHT22;9400;50.924;5.328;2023-04-24T16:27:26;15.10;99.90
18541;DHT22;9400;50.924;5.328;2023-04-24T16:29:53;15.10;99.90
18541;DHT22;9400;50.924;5.328;2023-04-24T16:32:21;15.50;99.90
18541;DHT22;9400;50.924;5.328;2023-04-24T16:34:49;15.00;99.90
18541;DHT22;9400;50.924;5.328;2023-04-24T16:37:18;14.70;99.90
18541;DHT22;9400;50.924;5.328;2023-04-24T16:39:46;14.30;99.90
18541;DHT22;9400;50.924;5.328;2023-04-24T16:42:14;14.60;99.90
18541;DHT22;9400;50.924;5.328;2023-04-24T16:44:42;14.90;99.90
18541;DHT22;9400;50.924;5.328;2023-04-24T16:47:10;14.70;99.90
18541;DHT22;9400;50.924;5.328;2023-04-24T16:49:39;15.40;99.90
18541;DHT22;9400;50.924;5.328;2023-04-24T16:52:06;16.10;99.90
18541;DHT22;9400;50.924;5.328;2023-04-24T16:54:35;15.90;99.90
18541;DHT22;9400;50.924;5.328;2023-04-24T16:57:03;15.20;99.90
18541;DHT22;9400;50.924;5.328;2023-04-24T16:59:32;14.60;99.90
18541;DHT22;9400;50.924;5.328;2023-04-24T17:02:00;14.40;99.90
18541;DHT22;9400;50.924;5.328;2023-04-24T17:04:28;14.00;99.90